Portales, New Mexico
Current Conditions -  °F | °C
As of 3:58 AM on Thursday 23 Oct 2014 (Local Time) from KCVS Reporting Station
Moderate Fog Moderate Fog  
Wind Chill: 51°   Ceiling: 100
Heat Index: 51°   Visibility: 0.25mi
Dew Point: 51°   Wind: 5mph
Humidity: 98%   Direction: 250°WSW
Pressure: 30.13"   Gusts: NA
Location:  34.18°N, 103.33°W
Report Text: KCVS 230958Z 25004KT 1/4SM R22/1600FT FG VV001 11/10 A3013 RMK AO2A SLP162 T01070104 $
Loading
Personal Weather Stations






























Interactive Weather Map
Tropical Storm Tracking
New forecast layout! Learn more

10-Day Weather Forecast

Advertisements
Track Severe Weather on mobile